Locatie 51° 56′ 37″.87 NB – 05° 58’47”.70 OL

We konden geen weer-waarchuwingen ophalen. Ga rechtstreeks naar de Meteoalarm site : www.meteoalarm.eu en controleer daar .


Webcam1-NNO Meer informatie Webcam1-NNO


Webcam2-ZZO Meer informatie Webcam2-ZZO


Bezoek ook deze websites:

Template documentatie
en downloads

Weer Sluispark Leuven

Allesoversterrenkunde.nl

Luchtkwaliteit Beekenoord



METAR rapporten vliegvelden

   
EHVK - Volkel Rnlafb, Netherlands
Afstand tot: ZW 18 km
Gewijzigd: 07-12-2022 18:25
Light, Bewolking  
Light, Bewolking  
   Wind: WZW 9.3 km/h
Wind: WZW 9.3 km/h
Temperatuur: 4°C
Voelt als: 2°C
Dauwpunt: 3°C
Vochtigheid: 93%
Barometer: 1014 hPa
Bewolking: Bewolking
Zicht: meer dan 10 km
Bewolking: Licht bewolkt 1700 ft,
Grotendeels bewolkt 2500 ft,
Bewolking 3000 ft
EHVK 071725Z AUTO 25005KT 9999 -UP FEW017 BKN025 OVC030 04/03 Q1014 BLU
EDLV - Niederrhein, Germany
Afstand tot: ZO 25 km
Gewijzigd: 07-12-2022 18:20
Licht bewolkt  
Licht bewolkt  
   Wind: WZW 9.3 km/h
Wind: WZW 9.3 km/h
Temperatuur: 3°C
Voelt als: 1°C
Dauwpunt: 3°C
Vochtigheid: 100%
Barometer: 1014 hPa
Bewolking: Licht bewolkt
Zicht: meer dan 10 km
Bewolking: Licht bewolkt 4900 ft
EDLV 071720Z 24005KT 9999 FEW049 03/03 Q1014
EHDL - Deelen Rnlafb, Netherlands
Afstand tot: N 35 km
Gewijzigd: 07-12-2022 17:55
Bewolking  
Bewolking  
   Wind: varieert 3.7 km/h
Wind: varieert 3.7 km/h
Temperatuur: 3°C
Dauwpunt: 3°C
Vochtigheid: 100%
Barometer: 1013 hPa
Bewolking: Bewolking
Zicht: meer dan 10 km
Bewolking: Grotendeels bewolkt 2600 ft,
Bewolking 9700 ft
EHDL 071655Z AUTO VRB02KT 9999 BKN026 OVC097 03/03 Q1013 BLU
EHEH - Eindhoven Rnlafb, Netherlands
Afstand tot: ZW 48 km
Gewijzigd: 07-12-2022 18:25
Bewolking  
Bewolking  
   Wind: WZW 9.3 km/h
Wind: WZW 9.3 km/h
Temperatuur: 5°C
Voelt als: 3°C
Dauwpunt: 3°C
Vochtigheid: 87%
Barometer: 1014 hPa
Bewolking: Bewolking
Zicht: meer dan 10 km
Bewolking: Bewolking 4500 ft
EHEH 071725Z AUTO 25005KT 230V290 9999 OVC045 05/03 Q1014 BLU TEMPO SCT013 SCT020CB
EHGR - Gilze-Rijen Rnla, Netherlands
Afstand tot: WZW 70 km
Gewijzigd: 07-12-2022 18:25
Bewolking  
Bewolking  
   Wind: WZW 7.4 km/h
Wind: WZW 7.4 km/h
Temperatuur: 4°C
Voelt als: 2°C
Dauwpunt: 3°C
Vochtigheid: 93%
Barometer: 1014 hPa
Bewolking: Bewolking
Zicht: meer dan 10 km
Bewolking: Grotendeels bewolkt 5800 ft,
Bewolking 6500 ft
EHGR 071725Z AUTO 24004KT 9999 BKN058 OVC065 04/03 Q1014 BLU NOSIG
EBBL - Kleine-Brogel(Ba, Belgium
Afstand tot: ZZW 71 km
Gewijzigd: 07-12-2022 17:55
Bewolking  
Bewolking  
   Wind: WZW 13 km/h
Wind: WZW 13 km/h
Temperatuur: 5°C
Voelt als: 2°C
Dauwpunt: 3°C
Vochtigheid: 87%
Barometer: 1015 hPa
Bewolking: Bewolking
Zicht: meer dan 10 km
Bewolking: Licht bewolkt 1200 ft,
Bewolking 3300 ft
EBBL 071655Z AUTO 25007KT 9999 FEW012/// OVC033/// 05/03 Q1015 BLU

Script ontwikkeld door  Saratoga-weather.org Aangepast voor de template door  Weerstation Leuven

U vindt ons ook hier:

Het Weer Aktueel

UK Metoffice

WeatherCloud

Weather Underground-IWESTE54

BNLWN

AWEKAS

Citizen Weather Observer Program (CWOP)

HAMweather, WeatherForYou, PWS Weather

weerspecialist

Apparatuur in gebruik:

Weerstation
Davis VP2

Weercomputer
Meteobridge Nano SD

Webleverancier
Strato

Davis VP2

Meteobridge Nano SD

Strato